sensor_id;sensor_type;location;lat;lon;timestamp;P1;durP1;ratioP1;P2;durP2;ratioP2
56242;SDS011;42155;53.096;23.226;2022-09-09T00:00:46;2.50;;;1.35;;
56242;SDS011;42155;53.096;23.226;2022-09-09T00:02:58;2.58;;;1.20;;
56242;SDS011;42155;53.096;23.226;2022-09-09T00:05:19;3.53;;;1.30;;
56242;SDS011;42155;53.096;23.226;2022-09-09T00:07:33;2.92;;;1.10;;
56242;SDS011;42155;53.096;23.226;2022-09-09T00:09:45;2.83;;;1.30;;
56242;SDS011;42155;53.096;23.226;2022-09-09T00:11:52;1.67;;;1.00;;
56242;SDS011;42155;53.096;23.226;2022-09-09T00:14:02;4.25;;;1.40;;
56242;SDS011;42155;53.096;23.226;2022-09-09T00:16:12;3.72;;;1.50;;
56242;SDS011;42155;53.096;23.226;2022-09-09T00:21:03;3.55;;;1.40;;
56242;SDS011;42155;53.096;23.226;2022-09-09T00:25:33;2.80;;;1.15;;
56242;SDS011;42155;53.096;23.226;2022-09-09T00:29:54;2.70;;;1.58;;
56242;SDS011;42155;53.096;23.226;2022-09-09T00:32:00;3.20;;;1.65;;
56242;SDS011;42155;53.096;23.226;2022-09-09T00:34:12;5.00;;;1.27;;
56242;SDS011;42155;53.096;23.226;2022-09-09T00:36:16;3.47;;;1.40;;
56242;SDS011;42155;53.096;23.226;2022-09-09T00:40:29;2.58;;;1.38;;
56242;SDS011;42155;53.096;23.226;2022-09-09T00:42:42;4.15;;;1.20;;
56242;SDS011;42155;53.096;23.226;2022-09-09T00:47:38;1.60;;;1.20;;
56242;SDS011;42155;53.096;23.226;2022-09-09T00:49:57;2.85;;;1.30;;
56242;SDS011;42155;53.096;23.226;2022-09-09T00:52:51;6.20;;;1.38;;
56242;SDS011;42155;53.096;23.226;2022-09-09T00:55:04;2.63;;;1.50;;
56242;SDS011;42155;53.096;23.226;2022-09-09T00:57:31;5.30;;;1.77;;
56242;SDS011;42155;53.096;23.226;2022-09-09T01:01:37;3.83;;;1.30;;
56242;SDS011;42155;53.096;23.226;2022-09-09T01:03:48;3.22;;;1.23;;
56242;SDS011;42155;53.096;23.226;2022-09-09T01:08:22;3.83;;;1.30;;
56242;SDS011;42155;53.096;23.226;2022-09-09T01:10:36;1.73;;;1.13;;
56242;SDS011;42155;53.096;23.226;2022-09-09T01:12:43;5.30;;;1.40;;
56242;SDS011;42155;53.096;23.226;2022-09-09T01:14:47;3.03;;;1.30;;
56242;SDS011;42155;53.096;23.226;2022-09-09T01:16:50;4.85;;;2.22;;
56242;SDS011;42155;53.096;23.226;2022-09-09T01:18:56;4.50;;;1.30;;
56242;SDS011;42155;53.096;23.226;2022-09-09T01:26:08;2.97;;;1.20;;
56242;SDS011;42155;53.096;23.226;2022-09-09T01:28:19;2.03;;;1.17;;
56242;SDS011;42155;53.096;23.226;2022-09-09T01:30:22;2.10;;;1.58;;
56242;SDS011;42155;53.096;23.226;2022-09-09T01:34:44;3.08;;;1.10;;
56242;SDS011;42155;53.096;23.226;2022-09-09T01:39:04;2.15;;;1.23;;
56242;SDS011;42155;53.096;23.226;2022-09-09T01:41:05;6.13;;;2.17;;
56242;SDS011;42155;53.096;23.226;2022-09-09T01:43:05;3.17;;;1.58;;
56242;SDS011;42155;53.096;23.226;2022-09-09T01:45:06;4.28;;;1.70;;
56242;SDS011;42155;53.096;23.226;2022-09-09T01:47:07;4.25;;;1.63;;
56242;SDS011;42155;53.096;23.226;2022-09-09T01:49:07;6.93;;;1.55;;
56242;SDS011;42155;53.096;23.226;2022-09-09T01:51:09;2.63;;;1.30;;
56242;SDS011;42155;53.096;23.226;2022-09-09T01:53:09;2.95;;;1.50;;
56242;SDS011;42155;53.096;23.226;2022-09-09T01:55:11;4.00;;;1.60;;
56242;SDS011;42155;53.096;23.226;2022-09-09T01:57:23;3.10;;;1.73;;
56242;SDS011;42155;53.096;23.226;2022-09-09T02:04:50;4.05;;;2.00;;
56242;SDS011;42155;53.096;23.226;2022-09-09T02:06:56;8.80;;;2.10;;
56242;SDS011;42155;53.096;23.226;2022-09-09T02:08:57;4.20;;;2.17;;
56242;SDS011;42155;53.096;23.226;2022-09-09T02:11:01;6.20;;;2.35;;
56242;SDS011;42155;53.096;23.226;2022-09-09T02:13:08;5.88;;;2.63;;
56242;SDS011;42155;53.096;23.226;2022-09-09T02:15:16;5.82;;;2.40;;
56242;SDS011;42155;53.096;23.226;2022-09-09T02:17:27;5.85;;;2.72;;
56242;SDS011;42155;53.096;23.226;2022-09-09T02:19:32;6.63;;;2.10;;
56242;SDS011;42155;53.096;23.226;2022-09-09T02:21:36;7.13;;;2.65;;
56242;SDS011;42155;53.096;23.226;2022-09-09T02:23:37;6.53;;;2.88;;
56242;SDS011;42155;53.096;23.226;2022-09-09T02:25:41;6.25;;;2.50;;
56242;SDS011;42155;53.096;23.226;2022-09-09T02:27:43;6.55;;;2.67;;
56242;SDS011;42155;53.096;23.226;2022-09-09T02:29:45;6.10;;;2.50;;
56242;SDS011;42155;53.096;23.226;2022-09-09T02:31:46;6.95;;;3.05;;
56242;SDS011;42155;53.096;23.226;2022-09-09T02:33:51;6.57;;;2.70;;
56242;SDS011;42155;53.096;23.226;2022-09-09T02:35:59;6.55;;;3.25;;
56242;SDS011;42155;53.096;23.226;2022-09-09T02:38:02;5.70;;;2.58;;
56242;SDS011;42155;53.096;23.226;2022-09-09T02:40:07;6.30;;;3.15;;
56242;SDS011;42155;53.096;23.226;2022-09-09T02:42:10;4.53;;;2.58;;
56242;SDS011;42155;53.096;23.226;2022-09-09T02:44:11;6.65;;;2.83;;
56242;SDS011;42155;53.096;23.226;2022-09-09T02:48:46;4.80;;;2.78;;
56242;SDS011;42155;53.096;23.226;2022-09-09T02:51:10;9.20;;;2.95;;
56242;SDS011;42155;53.096;23.226;2022-09-09T02:53:16;5.35;;;2.50;;
56242;SDS011;42155;53.096;23.226;2022-09-09T02:55:39;4.70;;;2.58;;
56242;SDS011;42155;53.096;23.226;2022-09-09T02:57:57;6.55;;;2.55;;
56242;SDS011;42155;53.096;23.226;2022-09-09T02:59:59;7.10;;;2.50;;
56242;SDS011;42155;53.096;23.226;2022-09-09T03:02:00;6.45;;;2.50;;
56242;SDS011;42155;53.096;23.226;2022-09-09T03:04:02;3.50;;;2.38;;
56242;SDS011;42155;53.096;23.226;2022-09-09T03:06:02;5.18;;;2.53;;
56242;SDS011;42155;53.096;23.226;2022-09-09T03:08:03;5.78;;;2.85;;
56242;SDS011;42155;53.096;23.226;2022-09-09T03:10:04;5.60;;;2.67;;
56242;SDS011;42155;53.096;23.226;2022-09-09T03:12:05;5.30;;;2.65;;
56242;SDS011;42155;53.096;23.226;2022-09-09T03:14:05;5.57;;;2.30;;
56242;SDS011;42155;53.096;23.226;2022-09-09T03:16:05;4.82;;;2.38;;
56242;SDS011;42155;53.096;23.226;2022-09-09T03:18:06;5.07;;;2.88;;
56242;SDS011;42155;53.096;23.226;2022-09-09T03:20:06;3.92;;;2.33;;
56242;SDS011;42155;53.096;23.226;2022-09-09T03:24:24;7.80;;;2.65;;
56242;SDS011;42155;53.096;23.226;2022-09-09T03:26:25;6.75;;;2.47;;
56242;SDS011;42155;53.096;23.226;2022-09-09T03:28:25;6.00;;;2.45;;
56242;SDS011;42155;53.096;23.226;2022-09-09T03:30:26;7.40;;;2.47;;
56242;SDS011;42155;53.096;23.226;2022-09-09T03:32:27;7.32;;;2.47;;
56242;SDS011;42155;53.096;23.226;2022-09-09T03:34:27;6.97;;;2.28;;
56242;SDS011;42155;53.096;23.226;2022-09-09T03:36:28;5.68;;;2.40;;
56242;SDS011;42155;53.096;23.226;2022-09-09T03:38:28;3.88;;;2.10;;
56242;SDS011;42155;53.096;23.226;2022-09-09T03:40:29;4.72;;;2.25;;
56242;SDS011;42155;53.096;23.226;2022-09-09T03:42:29;7.05;;;2.42;;
56242;SDS011;42155;53.096;23.226;2022-09-09T03:44:29;5.40;;;2.15;;
56242;SDS011;42155;53.096;23.226;2022-09-09T03:46:30;4.38;;;2.13;;
56242;SDS011;42155;53.096;23.226;2022-09-09T03:48:30;6.35;;;2.00;;
56242;SDS011;42155;53.096;23.226;2022-09-09T03:50:31;7.22;;;2.42;;
56242;SDS011;42155;53.096;23.226;2022-09-09T03:52:31;4.45;;;1.90;;
56242;SDS011;42155;53.096;23.226;2022-09-09T03:54:34;4.07;;;1.98;;
56242;SDS011;42155;53.096;23.226;2022-09-09T03:56:34;4.93;;;2.50;;
56242;SDS011;42155;53.096;23.226;2022-09-09T03:58:35;4.57;;;2.10;;
56242;SDS011;42155;53.096;23.226;2022-09-09T04:00:37;3.95;;;2.10;;
56242;SDS011;42155;53.096;23.226;2022-09-09T04:02:37;3.40;;;1.85;;
56242;SDS011;42155;53.096;23.226;2022-09-09T04:04:38;8.23;;;2.10;;
56242;SDS011;42155;53.096;23.226;2022-09-09T04:06:38;4.65;;;2.22;;
56242;SDS011;42155;53.096;23.226;2022-09-09T04:08:38;4.28;;;2.08;;
56242;SDS011;42155;53.096;23.226;2022-09-09T04:10:39;5.80;;;3.10;;
56242;SDS011;42155;53.096;23.226;2022-09-09T04:12:39;6.35;;;2.90;;
56242;SDS011;42155;53.096;23.226;2022-09-09T04:14:40;6.60;;;2.90;;
56242;SDS011;42155;53.096;23.226;2022-09-09T04:16:40;7.97;;;4.25;;
56242;SDS011;42155;53.096;23.226;2022-09-09T04:18:41;13.75;;;6.20;;
56242;SDS011;42155;53.096;23.226;2022-09-09T04:20:42;9.18;;;4.30;;
56242;SDS011;42155;53.096;23.226;2022-09-09T04:22:42;6.57;;;2.97;;
56242;SDS011;42155;53.096;23.226;2022-09-09T04:24:43;13.60;;;4.47;;
56242;SDS011;42155;53.096;23.226;2022-09-09T04:26:44;7.22;;;3.35;;
56242;SDS011;42155;53.096;23.226;2022-09-09T04:28:44;7.97;;;3.15;;
56242;SDS011;42155;53.096;23.226;2022-09-09T04:30:45;6.10;;;3.15;;
56242;SDS011;42155;53.096;23.226;2022-09-09T04:32:46;5.85;;;3.03;;
56242;SDS011;42155;53.096;23.226;2022-09-09T04:34:46;10.38;;;3.28;;
56242;SDS011;42155;53.096;23.226;2022-09-09T04:36:47;12.43;;;4.68;;
56242;SDS011;42155;53.096;23.226;2022-09-09T04:38:47;6.10;;;3.33;;
56242;SDS011;42155;53.096;23.226;2022-09-09T04:40:48;7.65;;;3.58;;
56242;SDS011;42155;53.096;23.226;2022-09-09T04:42:49;8.02;;;3.42;;
56242;SDS011;42155;53.096;23.226;2022-09-09T04:44:50;4.88;;;2.40;;
56242;SDS011;42155;53.096;23.226;2022-09-09T04:46:50;7.28;;;3.15;;
56242;SDS011;42155;53.096;23.226;2022-09-09T04:48:50;9.50;;;3.42;;
56242;SDS011;42155;53.096;23.226;2022-09-09T04:50:54;9.75;;;3.10;;
56242;SDS011;42155;53.096;23.226;2022-09-09T04:53:00;5.43;;;2.83;;
56242;SDS011;42155;53.096;23.226;2022-09-09T04:55:04;6.95;;;3.13;;
56242;SDS011;42155;53.096;23.226;2022-09-09T04:57:05;6.55;;;2.95;;
56242;SDS011;42155;53.096;23.226;2022-09-09T04:59:05;7.93;;;2.97;;
56242;SDS011;42155;53.096;23.226;2022-09-09T05:01:06;6.90;;;3.05;;
56242;SDS011;42155;53.096;23.226;2022-09-09T05:03:08;5.82;;;2.95;;
56242;SDS011;42155;53.096;23.226;2022-09-09T05:05:09;6.15;;;3.00;;
56242;SDS011;42155;53.096;23.226;2022-09-09T05:07:09;5.80;;;2.70;;
56242;SDS011;42155;53.096;23.226;2022-09-09T05:09:10;7.15;;;2.95;;
56242;SDS011;42155;53.096;23.226;2022-09-09T05:11:17;9.23;;;2.75;;
56242;SDS011;42155;53.096;23.226;2022-09-09T05:13:20;7.75;;;2.60;;
56242;SDS011;42155;53.096;23.226;2022-09-09T05:15:20;8.90;;;2.75;;
56242;SDS011;42155;53.096;23.226;2022-09-09T05:17:20;7.45;;;2.40;;
56242;SDS011;42155;53.096;23.226;2022-09-09T05:19:20;13.98;;;2.70;;
56242;SDS011;42155;53.096;23.226;2022-09-09T05:21:22;13.68;;;3.45;;
56242;SDS011;42155;53.096;23.226;2022-09-09T05:23:23;12.93;;;3.03;;
56242;SDS011;42155;53.096;23.226;2022-09-09T05:25:23;11.80;;;2.90;;
56242;SDS011;42155;53.096;23.226;2022-09-09T05:27:24;7.38;;;2.70;;
56242;SDS011;42155;53.096;23.226;2022-09-09T05:29:24;7.55;;;3.00;;
56242;SDS011;42155;53.096;23.226;2022-09-09T05:31:24;5.78;;;2.90;;
56242;SDS011;42155;53.096;23.226;2022-09-09T05:33:25;8.23;;;3.10;;
56242;SDS011;42155;53.096;23.226;2022-09-09T05:35:26;8.95;;;3.25;;
56242;SDS011;42155;53.096;23.226;2022-09-09T05:37:27;8.90;;;2.65;;
56242;SDS011;42155;53.096;23.226;2022-09-09T05:39:27;7.35;;;2.70;;
56242;SDS011;42155;53.096;23.226;2022-09-09T05:41:27;8.43;;;2.72;;
56242;SDS011;42155;53.096;23.226;2022-09-09T05:43:28;7.03;;;2.75;;
56242;SDS011;42155;53.096;23.226;2022-09-09T05:45:29;10.27;;;2.72;;
56242;SDS011;42155;53.096;23.226;2022-09-09T05:47:29;7.20;;;3.47;;
56242;SDS011;42155;53.096;23.226;2022-09-09T05:49:29;8.10;;;3.30;;
56242;SDS011;42155;53.096;23.226;2022-09-09T05:51:30;7.63;;;2.85;;
56242;SDS011;42155;53.096;23.226;2022-09-09T05:53:30;6.95;;;2.95;;
56242;SDS011;42155;53.096;23.226;2022-09-09T05:55:31;11.63;;;3.25;;
56242;SDS011;42155;53.096;23.226;2022-09-09T05:57:31;13.75;;;3.67;;
56242;SDS011;42155;53.096;23.226;2022-09-09T05:59:31;11.40;;;3.35;;
56242;SDS011;42155;53.096;23.226;2022-09-09T06:01:32;12.77;;;3.67;;
56242;SDS011;42155;53.096;23.226;2022-09-09T06:03:34;8.52;;;3.70;;
56242;SDS011;42155;53.096;23.226;2022-09-09T06:05:36;6.95;;;3.63;;
56242;SDS011;42155;53.096;23.226;2022-09-09T06:07:36;8.98;;;3.60;;
56242;SDS011;42155;53.096;23.226;2022-09-09T06:09:37;9.40;;;3.50;;
56242;SDS011;42155;53.096;23.226;2022-09-09T06:11:38;10.60;;;3.85;;
56242;SDS011;42155;53.096;23.226;2022-09-09T06:13:39;8.40;;;3.38;;
56242;SDS011;42155;53.096;23.226;2022-09-09T06:15:48;8.30;;;3.60;;
56242;SDS011;42155;53.096;23.226;2022-09-09T06:17:54;12.80;;;3.83;;
56242;SDS011;42155;53.096;23.226;2022-09-09T06:19:55;8.40;;;3.55;;
56242;SDS011;42155;53.096;23.226;2022-09-09T06:21:55;9.63;;;3.72;;
56242;SDS011;42155;53.096;23.226;2022-09-09T06:23:55;11.63;;;4.00;;
56242;SDS011;42155;53.096;23.226;2022-09-09T06:26:30;8.88;;;4.05;;
56242;SDS011;42155;53.096;23.226;2022-09-09T06:28:24;13.48;;;3.80;;
56242;SDS011;42155;53.096;23.226;2022-09-09T06:30:25;8.15;;;3.95;;
56242;SDS011;42155;53.096;23.226;2022-09-09T06:32:25;10.35;;;4.35;;
56242;SDS011;42155;53.096;23.226;2022-09-09T06:34:25;10.77;;;4.32;;
56242;SDS011;42155;53.096;23.226;2022-09-09T06:36:26;11.60;;;4.30;;
56242;SDS011;42155;53.096;23.226;2022-09-09T06:38:28;13.70;;;4.90;;
56242;SDS011;42155;53.096;23.226;2022-09-09T06:40:29;9.50;;;4.72;;
56242;SDS011;42155;53.096;23.226;2022-09-09T06:42:29;10.95;;;4.90;;
56242;SDS011;42155;53.096;23.226;2022-09-09T06:44:30;12.95;;;5.47;;
56242;SDS011;42155;53.096;23.226;2022-09-09T06:46:30;12.98;;;5.57;;
56242;SDS011;42155;53.096;23.226;2022-09-09T06:48:31;12.85;;;4.88;;
56242;SDS011;42155;53.096;23.226;2022-09-09T06:50:31;16.25;;;5.13;;
56242;SDS011;42155;53.096;23.226;2022-09-09T06:52:32;10.98;;;5.10;;
56242;SDS011;42155;53.096;23.226;2022-09-09T06:54:32;11.13;;;5.38;;
56242;SDS011;42155;53.096;23.226;2022-09-09T06:56:33;9.07;;;5.10;;
56242;SDS011;42155;53.096;23.226;2022-09-09T06:58:36;10.32;;;5.70;;
56242;SDS011;42155;53.096;23.226;2022-09-09T07:00:40;12.32;;;5.47;;
56242;SDS011;42155;53.096;23.226;2022-09-09T07:02:40;16.10;;;6.25;;
56242;SDS011;42155;53.096;23.226;2022-09-09T07:04:41;16.15;;;6.78;;
56242;SDS011;42155;53.096;23.226;2022-09-09T07:06:42;13.38;;;6.05;;
56242;SDS011;42155;53.096;23.226;2022-09-09T07:08:48;13.95;;;6.30;;
56242;SDS011;42155;53.096;23.226;2022-09-09T07:11:01;11.18;;;5.97;;
56242;SDS011;42155;53.096;23.226;2022-09-09T07:13:06;16.00;;;6.90;;
56242;SDS011;42155;53.096;23.226;2022-09-09T07:15:06;19.88;;;6.57;;
56242;SDS011;42155;53.096;23.226;2022-09-09T07:17:07;21.70;;;7.38;;
56242;SDS011;42155;53.096;23.226;2022-09-09T07:19:07;13.82;;;6.57;;
56242;SDS011;42155;53.096;23.226;2022-09-09T07:21:08;16.63;;;7.22;;
56242;SDS011;42155;53.096;23.226;2022-09-09T07:23:10;15.50;;;7.03;;
56242;SDS011;42155;53.096;23.226;2022-09-09T07:25:11;18.60;;;7.18;;
56242;SDS011;42155;53.096;23.226;2022-09-09T07:27:11;13.25;;;7.15;;
56242;SDS011;42155;53.096;23.226;2022-09-09T07:29:11;16.80;;;6.72;;
56242;SDS011;42155;53.096;23.226;2022-09-09T07:31:19;20.30;;;8.23;;
56242;SDS011;42155;53.096;23.226;2022-09-09T07:33:20;17.42;;;7.35;;
56242;SDS011;42155;53.096;23.226;2022-09-09T07:35:21;14.18;;;7.30;;
56242;SDS011;42155;53.096;23.226;2022-09-09T07:37:21;15.45;;;7.43;;
56242;SDS011;42155;53.096;23.226;2022-09-09T07:39:21;15.02;;;7.30;;
56242;SDS011;42155;53.096;23.226;2022-09-09T07:41:29;15.43;;;7.20;;
56242;SDS011;42155;53.096;23.226;2022-09-09T07:43:32;16.00;;;6.85;;
56242;SDS011;42155;53.096;23.226;2022-09-09T07:45:33;15.02;;;6.82;;
56242;SDS011;42155;53.096;23.226;2022-09-09T07:47:34;18.90;;;7.43;;
56242;SDS011;42155;53.096;23.226;2022-09-09T07:49:34;16.40;;;7.95;;
56242;SDS011;42155;53.096;23.226;2022-09-09T07:51:36;14.88;;;7.22;;
56242;SDS011;42155;53.096;23.226;2022-09-09T07:53:38;16.67;;;7.20;;
56242;SDS011;42155;53.096;23.226;2022-09-09T07:55:38;17.27;;;7.97;;
56242;SDS011;42155;53.096;23.226;2022-09-09T07:57:39;21.63;;;7.50;;
56242;SDS011;42155;53.096;23.226;2022-09-09T07:59:39;18.58;;;8.10;;
56242;SDS011;42155;53.096;23.226;2022-09-09T08:01:44;13.13;;;7.25;;
56242;SDS011;42155;53.096;23.226;2022-09-09T08:03:53;23.30;;;8.88;;
56242;SDS011;42155;53.096;23.226;2022-09-09T08:06:01;18.67;;;8.63;;
56242;SDS011;42155;53.096;23.226;2022-09-09T08:08:03;20.88;;;8.93;;
56242;SDS011;42155;53.096;23.226;2022-09-09T08:10:03;19.23;;;8.50;;
56242;SDS011;42155;53.096;23.226;2022-09-09T08:12:04;18.92;;;9.30;;
56242;SDS011;42155;53.096;23.226;2022-09-09T08:14:05;22.58;;;9.20;;
56242;SDS011;42155;53.096;23.226;2022-09-09T08:16:08;21.20;;;9.52;;
56242;SDS011;42155;53.096;23.226;2022-09-09T08:18:10;20.75;;;9.73;;
56242;SDS011;42155;53.096;23.226;2022-09-09T08:20:11;23.23;;;9.50;;
56242;SDS011;42155;53.096;23.226;2022-09-09T08:22:11;20.73;;;9.38;;
56242;SDS011;42155;53.096;23.226;2022-09-09T08:24:11;23.05;;;9.55;;
56242;SDS011;42155;53.096;23.226;2022-09-09T08:26:17;26.17;;;10.18;;
56242;SDS011;42155;53.096;23.226;2022-09-09T08:28:24;24.25;;;10.00;;
56242;SDS011;42155;53.096;23.226;2022-09-09T08:30:24;19.85;;;9.30;;
56242;SDS011;42155;53.096;23.226;2022-09-09T08:32:25;21.90;;;10.10;;
56242;SDS011;42155;53.096;23.226;2022-09-09T08:34:25;19.27;;;9.32;;
56242;SDS011;42155;53.096;23.226;2022-09-09T08:36:26;23.33;;;10.23;;
56242;SDS011;42155;53.096;23.226;2022-09-09T08:38:28;21.65;;;10.35;;
56242;SDS011;42155;53.096;23.226;2022-09-09T08:40:29;19.25;;;9.93;;
56242;SDS011;42155;53.096;23.226;2022-09-09T08:42:43;16.67;;;9.85;;
56242;SDS011;42155;53.096;23.226;2022-09-09T08:51:56;22.00;;;10.10;;
56242;SDS011;42155;53.096;23.226;2022-09-09T08:53:57;20.23;;;10.30;;
56242;SDS011;42155;53.096;23.226;2022-09-09T08:56:15;20.10;;;11.00;;
56242;SDS011;42155;53.096;23.226;2022-09-09T08:58:19;21.70;;;9.70;;
56242;SDS011;42155;53.096;23.226;2022-09-09T09:00:20;21.98;;;10.93;;
56242;SDS011;42155;53.096;23.226;2022-09-09T09:02:32;20.02;;;10.10;;
56242;SDS011;42155;53.096;23.226;2022-09-09T09:11:25;25.50;;;10.55;;
56242;SDS011;42155;53.096;23.226;2022-09-09T09:15:36;19.20;;;9.70;;
56242;SDS011;42155;53.096;23.226;2022-09-09T09:17:38;22.65;;;9.25;;
56242;SDS011;42155;53.096;23.226;2022-09-09T09:19:39;19.58;;;9.65;;
56242;SDS011;42155;53.096;23.226;2022-09-09T09:21:42;22.92;;;10.38;;
56242;SDS011;42155;53.096;23.226;2022-09-09T09:23:54;16.88;;;9.07;;
56242;SDS011;42155;53.096;23.226;2022-09-09T09:25:58;19.17;;;9.77;;
56242;SDS011;42155;53.096;23.226;2022-09-09T09:28:02;19.15;;;9.27;;
56242;SDS011;42155;53.096;23.226;2022-09-09T09:32:18;18.83;;;9.60;;
56242;SDS011;42155;53.096;23.226;2022-09-09T09:34:20;18.00;;;9.13;;
56242;SDS011;42155;53.096;23.226;2022-09-09T09:36:25;20.60;;;9.50;;
56242;SDS011;42155;53.096;23.226;2022-09-09T09:38:34;20.25;;;10.00;;
56242;SDS011;42155;53.096;23.226;2022-09-09T09:40:35;18.27;;;9.38;;
56242;SDS011;42155;53.096;23.226;2022-09-09T09:42:36;24.35;;;9.73;;
56242;SDS011;42155;53.096;23.226;2022-09-09T09:44:38;21.38;;;10.05;;
56242;SDS011;42155;53.096;23.226;2022-09-09T09:46:38;17.50;;;9.20;;
56242;SDS011;42155;53.096;23.226;2022-09-09T09:48:39;22.17;;;9.68;;
56242;SDS011;42155;53.096;23.226;2022-09-09T09:52:54;19.30;;;8.98;;
56242;SDS011;42155;53.096;23.226;2022-09-09T09:55:01;23.27;;;9.40;;
56242;SDS011;42155;53.096;23.226;2022-09-09T09:57:14;19.48;;;9.48;;
56242;SDS011;42155;53.096;23.226;2022-09-09T09:59:59;19.42;;;8.95;;
56242;SDS011;42155;53.096;23.226;2022-09-09T10:01:43;18.77;;;9.30;;
56242;SDS011;42155;53.096;23.226;2022-09-09T10:03:49;21.02;;;9.73;;
56242;SDS011;42155;53.096;23.226;2022-09-09T10:06:00;20.02;;;8.40;;
56242;SDS011;42155;53.096;23.226;2022-09-09T10:10:04;19.30;;;8.90;;
56242;SDS011;42155;53.096;23.226;2022-09-09T10:14:39;20.30;;;9.07;;
56242;SDS011;42155;53.096;23.226;2022-09-09T10:18:58;22.17;;;10.30;;
56242;SDS011;42155;53.096;23.226;2022-09-09T10:28:42;21.67;;;9.82;;
56242;SDS011;42155;53.096;23.226;2022-09-09T10:35:44;19.65;;;9.50;;
56242;SDS011;42155;53.096;23.226;2022-09-09T10:42:20;21.35;;;9.57;;
56242;SDS011;42155;53.096;23.226;2022-09-09T10:53:08;20.00;;;9.27;;
56242;SDS011;42155;53.096;23.226;2022-09-09T10:55:24;19.02;;;9.25;;
56242;SDS011;42155;53.096;23.226;2022-09-09T10:57:37;22.65;;;10.38;;
56242;SDS011;42155;53.096;23.226;2022-09-09T10:59:42;18.08;;;9.15;;
56242;SDS011;42155;53.096;23.226;2022-09-09T11:01:58;23.02;;;9.90;;
56242;SDS011;42155;53.096;23.226;2022-09-09T11:04:25;23.33;;;9.63;;
56242;SDS011;42155;53.096;23.226;2022-09-09T11:06:30;18.02;;;9.63;;
56242;SDS011;42155;53.096;23.226;2022-09-09T11:08:35;18.65;;;9.05;;
56242;SDS011;42155;53.096;23.226;2022-09-09T11:10:57;20.38;;;8.93;;
56242;SDS011;42155;53.096;23.226;2022-09-09T11:13:04;19.30;;;9.10;;
56242;SDS011;42155;53.096;23.226;2022-09-09T11:15:17;26.98;;;9.50;;
56242;SDS011;42155;53.096;23.226;2022-09-09T11:17:24;20.02;;;9.30;;
56242;SDS011;42155;53.096;23.226;2022-09-09T11:19:34;16.42;;;8.73;;
56242;SDS011;42155;53.096;23.226;2022-09-09T11:21:36;18.55;;;8.88;;
56242;SDS011;42155;53.096;23.226;2022-09-09T11:23:43;22.88;;;9.50;;
56242;SDS011;42155;53.096;23.226;2022-09-09T11:25:53;20.80;;;9.02;;
56242;SDS011;42155;53.096;23.226;2022-09-09T11:28:04;18.02;;;9.10;;
56242;SDS011;42155;53.096;23.226;2022-09-09T11:32:35;20.05;;;8.30;;
56242;SDS011;42155;53.096;23.226;2022-09-09T11:36:59;20.40;;;9.38;;
56242;SDS011;42155;53.096;23.226;2022-09-09T11:41:15;18.23;;;9.27;;
56242;SDS011;42155;53.096;23.226;2022-09-09T11:43:39;18.05;;;8.38;;
56242;SDS011;42155;53.096;23.226;2022-09-09T11:45:42;20.35;;;9.02;;
56242;SDS011;42155;53.096;23.226;2022-09-09T11:47:53;22.60;;;8.85;;
56242;SDS011;42155;53.096;23.226;2022-09-09T11:50:22;16.38;;;8.30;;
56242;SDS011;42155;53.096;23.226;2022-09-09T11:54:46;16.45;;;8.57;;
56242;SDS011;42155;53.096;23.226;2022-09-09T11:56:48;15.00;;;8.00;;
56242;SDS011;42155;53.096;23.226;2022-09-09T11:59:23;21.00;;;8.77;;
56242;SDS011;42155;53.096;23.226;2022-09-09T12:03:49;19.52;;;8.63;;
56242;SDS011;42155;53.096;23.226;2022-09-09T12:05:54;18.27;;;8.55;;
56242;SDS011;42155;53.096;23.226;2022-09-09T12:07:58;16.27;;;8.20;;
56242;SDS011;42155;53.096;23.226;2022-09-09T12:10:03;16.02;;;8.13;;
56242;SDS011;42155;53.096;23.226;2022-09-09T12:16:57;19.98;;;8.15;;
56242;SDS011;42155;53.096;23.226;2022-09-09T12:19:20;18.80;;;8.25;;
56242;SDS011;42155;53.096;23.226;2022-09-09T12:28:19;23.05;;;8.10;;
56242;SDS011;42155;53.096;23.226;2022-09-09T12:30:23;15.98;;;7.93;;
56242;SDS011;42155;53.096;23.226;2022-09-09T12:32:29;17.00;;;8.02;;
56242;SDS011;42155;53.096;23.226;2022-09-09T12:34:47;15.95;;;7.53;;
56242;SDS011;42155;53.096;23.226;2022-09-09T12:36:54;15.02;;;6.85;;
56242;SDS011;42155;53.096;23.226;2022-09-09T12:39:09;13.85;;;7.07;;
56242;SDS011;42155;53.096;23.226;2022-09-09T12:41:18;17.98;;;6.90;;
56242;SDS011;42155;53.096;23.226;2022-09-09T12:43:21;19.63;;;8.00;;
56242;SDS011;42155;53.096;23.226;2022-09-09T12:45:24;15.60;;;7.05;;
56242;SDS011;42155;53.096;23.226;2022-09-09T12:48:09;16.52;;;7.70;;
56242;SDS011;42155;53.096;23.226;2022-09-09T12:50:11;15.52;;;7.40;;
56242;SDS011;42155;53.096;23.226;2022-09-09T12:52:28;16.52;;;6.78;;
56242;SDS011;42155;53.096;23.226;2022-09-09T12:54:33;15.30;;;7.15;;
56242;SDS011;42155;53.096;23.226;2022-09-09T12:56:35;14.43;;;6.68;;
56242;SDS011;42155;53.096;23.226;2022-09-09T12:58:36;14.48;;;6.90;;
56242;SDS011;42155;53.096;23.226;2022-09-09T13:00:37;14.10;;;6.93;;
56242;SDS011;42155;53.096;23.226;2022-09-09T13:02:53;14.38;;;7.07;;
56242;SDS011;42155;53.096;23.226;2022-09-09T13:05:05;17.90;;;6.95;;
56242;SDS011;42155;53.096;23.226;2022-09-09T13:07:13;15.32;;;7.18;;
56242;SDS011;42155;53.096;23.226;2022-09-09T13:09:13;16.88;;;7.15;;
56242;SDS011;42155;53.096;23.226;2022-09-09T13:11:15;16.02;;;7.07;;
56242;SDS011;42155;53.096;23.226;2022-09-09T13:13:28;17.00;;;8.15;;
56242;SDS011;42155;53.096;23.226;2022-09-09T13:15:39;13.95;;;7.07;;
56242;SDS011;42155;53.096;23.226;2022-09-09T13:17:40;15.38;;;6.70;;
56242;SDS011;42155;53.096;23.226;2022-09-09T13:19:40;17.60;;;7.22;;
56242;SDS011;42155;53.096;23.226;2022-09-09T13:21:44;13.95;;;6.53;;
56242;SDS011;42155;53.096;23.226;2022-09-09T13:23:49;13.07;;;6.60;;
56242;SDS011;42155;53.096;23.226;2022-09-09T13:25:57;17.88;;;7.10;;
56242;SDS011;42155;53.096;23.226;2022-09-09T13:28:03;11.73;;;7.15;;
56242;SDS011;42155;53.096;23.226;2022-09-09T13:30:24;17.77;;;8.57;;
56242;SDS011;42155;53.096;23.226;2022-09-09T13:32:26;12.73;;;7.20;;
56242;SDS011;42155;53.096;23.226;2022-09-09T13:34:31;17.98;;;8.63;;
56242;SDS011;42155;53.096;23.226;2022-09-09T13:36:34;17.77;;;7.63;;
56242;SDS011;42155;53.096;23.226;2022-09-09T13:38:38;18.90;;;7.90;;
56242;SDS011;42155;53.096;23.226;2022-09-09T13:41:28;19.67;;;8.15;;
56242;SDS011;42155;53.096;23.226;2022-09-09T13:43:22;15.98;;;8.07;;
56242;SDS011;42155;53.096;23.226;2022-09-09T13:45:25;16.55;;;8.00;;
56242;SDS011;42155;53.096;23.226;2022-09-09T13:47:27;19.10;;;8.35;;
56242;SDS011;42155;53.096;23.226;2022-09-09T13:49:31;17.63;;;8.10;;
56242;SDS011;42155;53.096;23.226;2022-09-09T13:51:33;16.00;;;8.05;;
56242;SDS011;42155;53.096;23.226;2022-09-09T13:53:45;17.23;;;8.15;;
56242;SDS011;42155;53.096;23.226;2022-09-09T13:55:46;17.90;;;8.43;;
56242;SDS011;42155;53.096;23.226;2022-09-09T13:58:19;17.48;;;8.93;;
56242;SDS011;42155;53.096;23.226;2022-09-09T14:00:16;21.83;;;9.30;;
56242;SDS011;42155;53.096;23.226;2022-09-09T14:02:17;16.63;;;9.13;;
56242;SDS011;42155;53.096;23.226;2022-09-09T14:04:18;20.25;;;9.05;;
56242;SDS011;42155;53.096;23.226;2022-09-09T14:06:19;21.65;;;8.85;;